createdAt,value
2019-01-24T00:03:33.327Z,-1.00
2019-01-24T00:07:17.999Z,-1.00
2019-01-24T00:11:02.894Z,-1.00
2019-01-24T00:14:47.487Z,-0.90
2019-01-24T00:18:32.189Z,-0.90
2019-01-24T00:22:16.835Z,-0.90
2019-01-24T00:26:01.435Z,-0.90
2019-01-24T00:29:38.671Z,-0.90
2019-01-24T00:37:26.807Z,-1.00
2019-01-24T00:41:11.426Z,-1.00
2019-01-24T00:48:52.015Z,-1.00
2019-01-24T00:52:36.626Z,-1.00
2019-01-24T00:56:21.255Z,-1.00
2019-01-24T01:00:46.753Z,-1.00
2019-01-24T01:04:31.351Z,-1.00
2019-01-24T01:15:38.492Z,-1.00
2019-01-24T01:19:23.364Z,-1.10
2019-01-24T01:23:08.014Z,-1.10
2019-01-24T01:26:52.614Z,-1.10
2019-01-24T01:30:29.471Z,-1.10
2019-01-24T01:34:14.073Z,-1.10
2019-01-24T01:37:59.028Z,-1.20
2019-01-24T01:41:43.643Z,-1.20
2019-01-24T01:45:28.267Z,-1.20
2019-01-24T01:49:12.903Z,-1.20
2019-01-24T01:52:58.958Z,-1.20
2019-01-24T02:00:47.397Z,-1.30
2019-01-24T02:04:31.984Z,-1.30
2019-01-24T02:08:35.412Z,-1.30
2019-01-24T02:12:20.057Z,-1.30
2019-01-24T02:19:54.743Z,-1.30
2019-01-24T02:23:39.328Z,-1.40
2019-01-24T02:27:24.281Z,-1.30
2019-01-24T02:31:01.206Z,-1.40
2019-01-24T02:34:49.740Z,-1.30
2019-01-24T02:38:32.439Z,-1.30
2019-01-24T02:46:07.595Z,-1.40
2019-01-24T02:49:52.235Z,-1.40
2019-01-24T02:53:36.846Z,-1.40
2019-01-24T02:57:21.465Z,-1.40
2019-01-24T03:01:06.102Z,-1.40
2019-01-24T03:04:56.685Z,-1.40
2019-01-24T03:08:37.064Z,-1.50
2019-01-24T03:12:21.705Z,-1.40
2019-01-24T03:16:06.327Z,-1.50
2019-01-24T03:19:50.963Z,-1.60
2019-01-24T03:23:35.918Z,-1.50
2019-01-24T03:27:20.543Z,-1.50
2019-01-24T03:30:58.322Z,-1.50
2019-01-24T03:34:42.955Z,-1.60
2019-01-24T03:38:27.563Z,-1.60
2019-01-24T03:42:12.208Z,-1.50
2019-01-24T03:45:56.803Z,-1.50
2019-01-24T03:49:41.435Z,-1.50
2019-01-24T03:57:15.839Z,-1.50
2019-01-24T04:01:00.459Z,-1.60
2019-01-24T04:04:45.082Z,-1.60
2019-01-24T04:08:30.446Z,-1.60
2019-01-24T04:12:15.097Z,-1.60
2019-01-24T04:16:00.085Z,-1.60
2019-01-24T04:19:44.714Z,-1.60
2019-01-24T04:23:29.308Z,-1.60
2019-01-24T04:27:32.741Z,-1.60
2019-01-24T04:31:09.757Z,-1.60
2019-01-24T04:34:54.354Z,-1.60
2019-01-24T04:38:39.011Z,-1.60
2019-01-24T04:42:23.612Z,-1.70
2019-01-24T04:46:08.236Z,-1.70
2019-01-24T04:49:52.862Z,-1.60
2019-01-24T04:53:37.482Z,-1.70
2019-01-24T04:57:22.069Z,-1.60
2019-01-24T05:01:06.972Z,-1.70
2019-01-24T05:04:51.604Z,-1.70
2019-01-24T05:08:36.242Z,-1.60
2019-01-24T05:12:20.885Z,-1.60
2019-01-24T05:16:05.501Z,-1.60
2019-01-24T05:19:50.068Z,-1.70
2019-01-24T05:23:34.715Z,-1.70
2019-01-24T05:27:19.350Z,-1.70
2019-01-24T05:30:56.586Z,-1.80
2019-01-24T05:34:41.226Z,-1.80
2019-01-24T05:38:25.852Z,-1.80
2019-01-24T05:42:10.487Z,-1.80
2019-01-24T05:45:55.124Z,-1.90
2019-01-24T05:49:40.091Z,-1.80
2019-01-24T05:53:24.715Z,-1.80
2019-01-24T05:57:09.354Z,-1.80
2019-01-24T06:00:54.054Z,-1.80
2019-01-24T06:04:38.626Z,-1.80
2019-01-24T06:08:23.283Z,-1.80
2019-01-24T06:12:07.917Z,-1.80
2019-01-24T06:15:52.546Z,-1.80
2019-01-24T06:19:37.267Z,-1.80
2019-01-24T06:23:21.910Z,-1.80
2019-01-24T06:27:06.558Z,-1.80
2019-01-24T06:30:43.804Z,-1.80
2019-01-24T06:34:28.415Z,-1.80
2019-01-24T06:38:13.403Z,-1.80
2019-01-24T06:41:58.690Z,-1.80
2019-01-24T06:45:43.267Z,-1.80
2019-01-24T06:49:27.952Z,-1.80
2019-01-24T06:53:12.611Z,-1.80
2019-01-24T06:56:57.246Z,-1.70
2019-01-24T07:00:41.880Z,-1.70
2019-01-24T07:04:26.480Z,-1.70
2019-01-24T07:08:11.127Z,-1.80
2019-01-24T07:11:56.442Z,-1.70
2019-01-24T07:15:41.521Z,-1.80
2019-01-24T07:19:26.185Z,-1.70
2019-01-24T07:23:11.025Z,-1.70
2019-01-24T07:30:45.661Z,-1.70
2019-01-24T07:34:22.520Z,-1.80
2019-01-24T07:38:07.159Z,-1.90
2019-01-24T07:41:51.795Z,-1.80
2019-01-24T07:45:38.677Z,-1.80
2019-01-24T07:49:23.318Z,-1.80
2019-01-24T07:53:27.309Z,-1.80
2019-01-24T07:57:11.930Z,-1.70
2019-01-24T08:00:56.575Z,-1.70
2019-01-24T08:04:41.521Z,-1.70
2019-01-24T08:08:26.133Z,-1.80
2019-01-24T08:12:10.759Z,-1.80
2019-01-24T08:15:55.741Z,-1.80
2019-01-24T08:19:40.405Z,-1.70
2019-01-24T08:23:25.044Z,-1.80
2019-01-24T08:27:09.759Z,-1.70
2019-01-24T08:30:46.487Z,-1.60
2019-01-24T08:34:31.140Z,-1.60
2019-01-24T08:42:06.622Z,-1.50
2019-01-24T08:45:51.256Z,-1.50
2019-01-24T08:49:35.867Z,-1.50
2019-01-24T08:53:20.506Z,-1.50
2019-01-24T08:57:05.118Z,-1.40
2019-01-24T09:00:49.732Z,-1.40
2019-01-24T09:04:34.358Z,-1.30
2019-01-24T09:08:18.981Z,-1.30
2019-01-24T09:15:47.979Z,-1.30
2019-01-24T09:19:25.000Z,-1.20
2019-01-24T09:23:09.636Z,-1.20
2019-01-24T09:26:54.262Z,-1.20
2019-01-24T09:30:38.885Z,-1.10
2019-01-24T09:34:23.506Z,-1.00
2019-01-24T09:38:08.160Z,-0.90
2019-01-24T09:41:53.101Z,-0.90
2019-01-24T09:45:39.058Z,-0.90
2019-01-24T09:49:23.696Z,-0.80
2019-01-24T09:53:08.606Z,-0.70
2019-01-24T09:56:53.256Z,-0.70
2019-01-24T10:00:22.093Z,-0.60
2019-01-24T10:04:06.748Z,-0.60
2019-01-24T10:07:51.395Z,-0.50
2019-01-24T10:11:36.280Z,-0.40
2019-01-24T10:19:31.513Z,-0.50
2019-01-24T10:23:08.518Z,-0.70
2019-01-24T10:26:53.177Z,-0.50
2019-01-24T10:30:42.616Z,-0.70
2019-01-24T10:38:14.682Z,-0.70
2019-01-24T10:42:18.403Z,-0.70
2019-01-24T10:46:02.998Z,-0.70
2019-01-24T10:53:51.157Z,-0.70
2019-01-24T10:57:36.093Z,-0.70
2019-01-24T11:05:51.538Z,-0.70
2019-01-24T11:09:36.181Z,-0.60
2019-01-24T11:13:39.647Z,-0.60
2019-01-24T11:17:24.326Z,-0.50
2019-01-24T11:21:02.145Z,-0.50
2019-01-24T11:28:37.026Z,-0.50
2019-01-24T11:32:21.691Z,-0.50
2019-01-24T11:36:06.606Z,-0.40
2019-01-24T11:39:51.278Z,-0.30
2019-01-24T11:43:35.963Z,-0.20
2019-01-24T11:47:20.876Z,-0.20
2019-01-24T11:51:05.567Z,-0.20
2019-01-24T11:54:50.526Z,-0.40
2019-01-24T11:58:16.107Z,-0.30
2019-01-24T12:02:00.721Z,-0.30
2019-01-24T12:05:46.199Z,-0.30
2019-01-24T12:09:30.848Z,-0.20
2019-01-24T12:13:09.008Z,-0.20
2019-01-24T12:16:53.663Z,-0.30
2019-01-24T12:24:42.574Z,-0.20
2019-01-24T12:28:27.209Z,-0.20
2019-01-24T12:32:11.874Z,-0.10
2019-01-24T12:35:56.481Z,-0.10
2019-01-24T12:39:41.141Z,0.00
2019-01-24T12:43:26.041Z,-0.10
2019-01-24T12:47:10.686Z,-0.20
2019-01-24T12:50:55.301Z,-0.30
2019-01-24T12:54:39.975Z,-0.30
2019-01-24T12:58:17.675Z,-0.40
2019-01-24T13:02:02.310Z,-0.30
2019-01-24T13:05:46.938Z,-0.20
2019-01-24T13:09:32.320Z,-0.20
2019-01-24T13:13:17.520Z,-0.20
2019-01-24T13:17:02.152Z,-0.20
2019-01-24T13:20:46.788Z,-0.20
2019-01-24T13:24:31.400Z,-0.20
2019-01-24T13:28:16.399Z,-0.40
2019-01-24T13:36:04.534Z,-0.40
2019-01-24T13:39:49.195Z,-0.40
2019-01-24T13:43:33.803Z,-0.40
2019-01-24T13:47:18.676Z,-0.50
2019-01-24T13:51:03.305Z,-0.50
2019-01-24T13:54:48.214Z,-0.50
2019-01-24T13:58:25.486Z,-0.70
2019-01-24T14:02:10.098Z,-0.70
2019-01-24T14:05:55.142Z,-0.70
2019-01-24T14:09:39.795Z,-0.70
2019-01-24T14:13:24.458Z,-0.70
2019-01-24T14:17:09.110Z,-0.80
2019-01-24T14:20:53.745Z,-0.80
2019-01-24T14:24:38.759Z,-0.80
2019-01-24T14:28:23.368Z,-0.80
2019-01-24T14:32:08.137Z,-0.90
2019-01-24T14:35:52.876Z,-0.90
2019-01-24T14:39:37.494Z,-0.90
2019-01-24T14:43:03.609Z,-1.00
2019-01-24T14:46:29.182Z,-1.10
2019-01-24T14:49:54.755Z,-1.20
2019-01-24T14:53:20.590Z,-1.20
2019-01-24T14:57:05.312Z,-1.10
2019-01-24T15:00:44.817Z,-1.10
2019-01-24T15:04:29.714Z,-1.20
2019-01-24T15:08:14.917Z,-1.20
2019-01-24T15:11:59.642Z,-1.20
2019-01-24T15:15:44.255Z,-1.30
2019-01-24T15:19:28.899Z,-1.30
2019-01-24T15:23:13.499Z,-1.30
2019-01-24T15:26:58.143Z,-1.30
2019-01-24T15:30:42.798Z,-1.40
2019-01-24T15:34:27.472Z,-1.40
2019-01-24T15:38:12.496Z,-1.40
2019-01-24T15:41:57.124Z,-1.40
2019-01-24T15:45:41.787Z,-1.40
2019-01-24T15:49:26.398Z,-1.40
2019-01-24T15:53:11.035Z,-1.50
2019-01-24T15:56:55.846Z,-1.50
2019-01-24T16:00:40.708Z,-1.50
2019-01-24T16:04:25.380Z,-1.50
2019-01-24T16:08:10.064Z,-1.60
2019-01-24T16:11:54.664Z,-1.60
2019-01-24T16:15:39.288Z,-1.60
2019-01-24T16:19:23.934Z,-1.70
2019-01-24T16:23:08.611Z,-1.60
2019-01-24T16:26:53.244Z,-1.70
2019-01-24T16:34:41.856Z,-1.70
2019-01-24T16:38:26.657Z,-1.80
2019-01-24T16:42:11.278Z,-1.70
2019-01-24T16:45:55.865Z,-1.80
2019-01-24T16:49:40.511Z,-1.80
2019-01-24T16:53:25.191Z,-1.80
2019-01-24T16:57:11.209Z,-1.80
2019-01-24T17:01:34.608Z,-1.80
2019-01-24T17:05:19.506Z,-1.80
2019-01-24T17:13:14.790Z,-1.70
2019-01-24T17:21:02.913Z,-1.70
2019-01-24T17:24:47.290Z,-1.80
2019-01-24T17:28:31.920Z,-1.70
2019-01-24T17:32:16.591Z,-1.70
2019-01-24T17:35:53.798Z,-1.60
2019-01-24T17:39:38.422Z,-1.60
2019-01-24T17:43:23.186Z,-1.60
2019-01-24T17:51:11.289Z,-1.60
2019-01-24T17:54:55.885Z,-1.60
2019-01-24T17:58:40.528Z,-1.60
2019-01-24T18:02:25.120Z,-1.60
2019-01-24T18:06:29.273Z,-1.60
2019-01-24T18:10:33.989Z,-1.70
2019-01-24T18:14:18.613Z,-1.70
2019-01-24T18:18:23.801Z,-1.60
2019-01-24T18:22:08.411Z,-1.70
2019-01-24T18:25:53.004Z,-1.70
2019-01-24T18:29:37.635Z,-1.70
2019-01-24T18:33:14.480Z,-1.70
2019-01-24T18:36:59.164Z,-1.70
2019-01-24T18:40:43.813Z,-1.70
2019-01-24T18:44:28.418Z,-1.60
2019-01-24T18:48:13.116Z,-1.60
2019-01-24T18:51:57.724Z,-1.70
2019-01-24T18:59:39.844Z,-1.70
2019-01-24T19:03:24.495Z,-1.60
2019-01-24T19:07:09.226Z,-1.60
2019-01-24T19:10:54.283Z,-1.60
2019-01-24T19:14:38.934Z,-1.70
2019-01-24T19:18:23.558Z,-1.70
2019-01-24T19:22:08.519Z,-1.70
2019-01-24T19:25:53.712Z,-1.60
2019-01-24T19:29:38.297Z,-1.60
2019-01-24T19:33:15.534Z,-1.60
2019-01-24T19:37:00.167Z,-1.60
2019-01-24T19:40:44.763Z,-1.60
2019-01-24T19:44:15.652Z,-1.60
2019-01-24T19:47:56.686Z,-1.60
2019-01-24T19:51:41.295Z,-1.60
2019-01-24T19:55:25.986Z,-1.70
2019-01-24T19:59:10.585Z,-1.70
2019-01-24T20:02:55.228Z,-1.70
2019-01-24T20:06:39.834Z,-1.60
2019-01-24T20:11:04.559Z,-1.60
2019-01-24T20:14:49.132Z,-1.60
2019-01-24T20:18:33.777Z,-1.50
2019-01-24T20:22:18.445Z,-1.50
2019-01-24T20:26:03.076Z,-1.60
2019-01-24T20:29:47.728Z,-1.60
2019-01-24T20:33:32.359Z,-1.60
2019-01-24T20:37:09.570Z,-1.60
2019-01-24T20:40:54.198Z,-1.60
2019-01-24T20:48:30.383Z,-1.50
2019-01-24T20:52:15.091Z,-1.60
2019-01-24T20:55:59.748Z,-1.60
2019-01-24T21:00:03.529Z,-1.60
2019-01-24T21:03:55.121Z,-1.50
2019-01-24T21:07:35.289Z,-1.50
2019-01-24T21:11:20.042Z,-1.50
2019-01-24T21:19:09.285Z,-1.40
2019-01-24T21:22:53.915Z,-1.50
2019-01-24T21:26:38.578Z,-1.50
2019-01-24T21:30:28.722Z,-1.40
2019-01-24T21:34:06.239Z,-1.50
2019-01-24T21:37:50.991Z,-1.50
2019-01-24T21:41:35.674Z,-1.40
2019-01-24T21:45:40.584Z,-1.40
2019-01-24T21:49:25.241Z,-1.40
2019-01-24T21:53:10.130Z,-1.40
2019-01-24T21:56:54.809Z,-1.40
2019-01-24T22:00:39.491Z,-1.40
2019-01-24T22:04:24.135Z,-1.40
2019-01-24T22:08:08.822Z,-1.50
2019-01-24T22:11:53.451Z,-1.50
2019-01-24T22:15:38.102Z,-1.50
2019-01-24T22:19:22.728Z,-1.40
2019-01-24T22:23:07.658Z,-1.40
2019-01-24T22:26:52.327Z,-1.40
2019-01-24T22:30:42.421Z,-1.40
2019-01-24T22:34:21.244Z,-1.40
2019-01-24T22:38:06.645Z,-1.30
2019-01-24T22:41:51.305Z,-1.30
2019-01-24T22:45:35.992Z,-1.30
2019-01-24T22:49:20.653Z,-1.30
2019-01-24T22:53:05.317Z,-1.30
2019-01-24T22:56:49.966Z,-1.30
2019-01-24T23:01:13.148Z,-1.30
2019-01-24T23:04:57.753Z,-1.20
2019-01-24T23:08:42.536Z,-1.30
2019-01-24T23:12:27.204Z,-1.30
2019-01-24T23:16:11.969Z,-1.30
2019-01-24T23:19:56.633Z,-1.40
2019-01-24T23:23:41.255Z,-1.30
2019-01-24T23:27:26.256Z,-1.40
2019-01-24T23:31:10.874Z,-1.40
2019-01-24T23:34:55.506Z,-1.40
2019-01-24T23:38:40.165Z,-1.40
2019-01-24T23:42:25.090Z,-1.40
2019-01-24T23:46:09.862Z,-1.40
2019-01-24T23:49:54.517Z,-1.30
2019-01-24T23:53:39.143Z,-1.30
2019-01-24T23:57:24.116Z,-1.30
